Time;durP1;ratioP1;P1;durP2;ratioP2;P2;SDS_P1;SDS_P2;PMS_P1;PMS_P2;Temp;Humidity;BMP_temperature;BMP_pressure;BME280_temperature;BME280_humidity;BME280_pressure;Samples;Min_cycle;Max_cycle;Signal;HPM_P1;HPM_P2
2022/04/25 00:00:18;;;;;;;30.97;4.77;;;10.40;46.80;;;;;;5007777;28;20466;-57
2022/04/25 00:02:45;;;;;;;29.57;3.60;;;10.30;47.10;;;;;;5011809;28;20459;-57
2022/04/25 00:05:12;;;;;;;29.63;3.50;;;10.30;47.10;;;;;;5018633;28;20459;-57
2022/04/25 00:07:39;;;;;;;29.97;3.80;;;10.30;47.10;;;;;;5013141;28;20475;-57
2022/04/25 00:10:07;;;;;;;30.00;3.70;;;10.30;47.10;;;;;;5009494;28;20456;-57
2022/04/25 00:12:35;;;;;;;30.77;4.03;;;10.30;47.00;;;;;;5005822;28;21169;-57
2022/04/25 00:15:01;;;;;;;29.67;3.70;;;10.30;47.10;;;;;;5008944;28;20467;-57
2022/04/25 00:17:28;;;;;;;30.50;4.13;;;10.30;46.90;;;;;;5004278;28;20464;-57
2022/04/25 00:19:55;;;;;;;29.80;3.73;;;10.30;47.10;;;;;;5009108;28;20467;-57
2022/04/25 00:22:22;;;;;;;30.30;4.00;;;10.30;47.20;;;;;;5011444;28;20468;-57
2022/04/25 00:24:50;;;;;;;30.17;4.00;;;10.30;47.10;;;;;;5004712;28;20464;-57
2022/04/25 00:27:17;;;;;;;29.70;3.80;;;10.30;47.10;;;;;;5004007;28;20468;-60
2022/04/25 00:29:45;;;;;;;31.67;3.80;;;10.30;47.20;;;;;;5011204;28;20456;-57
2022/04/25 00:32:12;;;;;;;30.50;3.73;;;10.30;47.30;;;;;;5003447;28;20851;-56
2022/04/25 00:34:38;;;;;;;30.27;4.20;;;10.20;47.20;;;;;;5008230;28;20475;-57
2022/04/25 00:37:05;;;;;;;30.57;4.40;;;10.30;47.30;;;;;;5008100;28;20988;-57
2022/04/25 00:39:32;;;;;;;30.13;4.50;;;10.20;47.10;;;;;;5000681;28;20483;-58
2022/04/25 00:41:59;;;;;;;30.60;4.93;;;10.20;47.00;;;;;;5008910;28;20460;-56
2022/04/25 00:44:26;;;;;;;30.80;4.07;;;10.30;46.90;;;;;;5008771;28;20456;-57
2022/04/25 00:46:55;;;;;;;30.90;4.17;;;10.30;46.70;;;;;;5010267;28;20456;-57
2022/04/25 00:49:23;;;;;;;31.53;4.50;;;10.30;46.70;;;;;;5008765;28;20479;-56
2022/04/25 00:51:52;;;;;;;31.07;4.97;;;10.30;46.60;;;;;;5004719;28;20511;-57
2022/04/25 00:54:20;;;;;;;31.17;5.30;;;10.30;46.70;;;;;;5009801;28;20902;-57
2022/04/25 00:56:48;;;;;;;31.00;4.80;;;10.30;46.70;;;;;;5012475;28;20716;-57
2022/04/25 00:59:17;;;;;;;31.77;5.30;;;10.30;47.00;;;;;;5006103;28;21004;-56
2022/04/25 01:01:44;;;;;;;31.77;5.20;;;10.30;46.80;;;;;;5006964;28;20487;-57
2022/04/25 01:04:12;;;;;;;31.10;4.77;;;10.20;46.70;;;;;;5017678;28;20840;-57
2022/04/25 01:06:39;;;;;;;30.53;4.60;;;10.20;46.80;;;;;;5018202;28;20471;-57
2022/04/25 01:09:07;;;;;;;30.40;4.10;;;10.20;46.70;;;;;;5004923;28;20479;-57
2022/04/25 01:11:34;;;;;;;30.37;4.33;;;10.20;46.90;;;;;;5007136;28;20472;-60
2022/04/25 01:14:12;;;;;;;31.37;5.73;;;10.20;46.90;;;;;;5005122;28;21072;-57
2022/04/25 01:16:39;;;;;;;30.60;4.00;;;10.20;47.10;;;;;;5014865;28;20467;-59
2022/04/25 01:19:05;;;;;;;31.60;5.13;;;10.20;47.00;;;;;;5005139;28;20482;-57
2022/04/25 01:21:39;;;;;;;30.60;4.77;;;10.20;47.00;;;;;;5004330;28;20482;-57
2022/04/25 01:29:38;;;;;;;31.03;4.60;;;10.20;47.30;;;;;;5005474;28;20517;-57
2022/04/25 01:32:06;;;;;;;30.97;4.77;;;10.20;47.40;;;;;;5018885;28;20463;-57
2022/04/25 01:34:36;;;;;;;32.87;4.80;;;10.20;47.20;;;;;;5005712;28;20488;-57
2022/04/25 01:37:05;;;;;;;30.90;5.40;;;10.20;47.30;;;;;;5016423;28;20984;-56
2022/04/25 01:39:34;;;;;;;31.67;4.63;;;10.20;47.40;;;;;;5001088;28;20576;-56
2022/04/25 01:42:01;;;;;;;30.80;4.47;;;10.10;47.60;;;;;;5006567;28;20482;-57
2022/04/25 01:44:28;;;;;;;30.57;4.30;;;10.10;47.60;;;;;;5006288;28;20451;-56
2022/04/25 01:46:55;;;;;;;30.47;4.40;;;10.20;47.60;;;;;;5007203;28;20468;-57
2022/04/25 01:49:22;;;;;;;30.50;4.80;;;10.10;47.90;;;;;;5009651;28;20487;-56
2022/04/25 01:51:48;;;;;;;30.97;4.97;;;10.10;47.70;;;;;;5015624;28;20479;-56
2022/04/25 01:54:21;;;;;;;31.47;4.90;;;10.10;47.90;;;;;;5006311;28;21004;-56
2022/04/25 01:56:49;;;;;;;31.03;4.90;;;10.10;47.90;;;;;;5007096;28;20460;-57
2022/04/25 01:59:15;;;;;;;32.20;5.80;;;10.10;47.90;;;;;;5002091;28;20496;-56
2022/04/25 02:01:43;;;;;;;31.07;4.23;;;10.10;47.90;;;;;;5007880;28;20487;-57
2022/04/25 02:04:10;;;;;;;30.57;4.67;;;10.10;48.00;;;;;;5006672;28;20483;-57
2022/04/25 02:06:36;;;;;;;31.30;5.27;;;10.00;48.00;;;;;;5007821;28;20472;-57
2022/04/25 02:09:03;;;;;;;32.13;5.47;;;10.10;47.90;;;;;;5017508;28;20510;-56
2022/04/25 02:11:31;;;;;;;31.73;5.97;;;10.00;47.90;;;;;;5006105;28;20466;-57
2022/04/25 02:13:59;;;;;;;31.67;6.00;;;10.00;47.60;;;;;;5004127;28;20855;-56
2022/04/25 02:16:26;;;;;;;31.53;5.27;;;10.00;47.30;;;;;;5007933;28;20464;-57
2022/04/25 02:18:54;;;;;;;32.27;5.30;;;10.10;47.40;;;;;;5011889;28;20938;-57
2022/04/25 02:21:21;;;;;;;32.50;5.80;;;10.00;47.10;;;;;;5012723;28;20467;-58
2022/04/25 02:23:48;;;;;;;31.03;5.20;;;10.10;47.00;;;;;;5002188;28;20546;-57
2022/04/25 02:26:15;;;;;;;33.33;5.20;;;10.10;47.00;;;;;;5007604;28;20550;-56
2022/04/25 02:28:42;;;;;;;31.30;5.40;;;10.10;47.00;;;;;;5007851;28;21021;-57
2022/04/25 02:31:10;;;;;;;31.57;5.43;;;10.10;46.80;;;;;;5012200;28;20475;-60
2022/04/25 02:33:37;;;;;;;33.90;5.77;;;10.10;47.00;;;;;;5012968;28;20487;-57
2022/04/25 02:36:05;;;;;;;31.83;5.57;;;10.10;46.80;;;;;;5010560;28;20456;-57
2022/04/25 02:38:32;;;;;;;34.43;6.80;;;10.10;47.00;;;;;;5011205;28;20480;-60
2022/04/25 02:41:08;;;;;;;32.37;6.53;;;10.10;47.10;;;;;;5009623;28;20844;-60
2022/04/25 02:43:39;;;;;;;32.77;6.07;;;10.10;46.90;;;;;;5016582;28;20513;-56
2022/04/25 02:46:08;;;;;;;33.60;6.30;;;10.10;46.90;;;;;;5006281;28;21052;-59
2022/04/25 02:48:37;;;;;;;32.27;6.27;;;10.10;46.90;;;;;;5006755;28;20471;-59
2022/04/25 02:51:05;;;;;;;32.40;6.30;;;10.10;46.80;;;;;;5006928;28;20487;-57
2022/04/25 02:53:33;;;;;;;35.33;6.13;;;10.10;46.80;;;;;;5018688;28;20455;-57
2022/04/25 02:56:02;;;;;;;32.23;6.23;;;10.10;46.90;;;;;;5008739;28;20467;-57
2022/04/25 02:58:30;;;;;;;33.13;7.20;;;10.10;47.00;;;;;;5009846;28;20574;-57
2022/04/25 03:00:58;;;;;;;32.67;5.93;;;10.10;47.10;;;;;;5009600;28;20479;-57
2022/04/25 03:03:25;;;;;;;32.57;6.00;;;10.10;46.80;;;;;;5014330;28;20464;-57
2022/04/25 03:05:55;;;;;;;32.90;6.30;;;10.10;46.70;;;;;;5007495;28;20471;-59
2022/04/25 03:08:24;;;;;;;32.47;6.17;;;10.10;47.00;;;;;;5003143;28;20493;-59
2022/04/25 03:10:52;;;;;;;32.50;6.83;;;10.20;46.90;;;;;;5008521;28;20917;-57
2022/04/25 03:13:20;;;;;;;32.23;6.47;;;10.10;47.10;;;;;;5005816;28;20518;-57
2022/04/25 03:15:47;;;;;;;32.40;6.00;;;10.20;46.80;;;;;;5008927;28;20484;-58
2022/04/25 03:18:16;;;;;;;33.07;7.20;;;10.10;47.00;;;;;;5010947;28;20484;-57
2022/04/25 03:20:44;;;;;;;32.60;7.47;;;10.10;47.10;;;;;;5007022;28;21020;-59
2022/04/25 03:23:14;;;;;;;33.43;6.93;;;10.10;47.30;;;;;;5008857;28;20463;-57
2022/04/25 03:25:41;;;;;;;33.80;7.27;;;10.20;47.00;;;;;;5009503;28;20502;-57
2022/04/25 03:28:08;;;;;;;33.40;6.87;;;10.20;46.70;;;;;;5009744;28;20486;-57
2022/04/25 03:30:35;;;;;;;33.00;6.97;;;10.20;46.80;;;;;;5008979;28;20498;-59
2022/04/25 03:33:03;;;;;;;33.30;6.73;;;10.20;46.70;;;;;;5009746;28;20455;-59
2022/04/25 03:35:30;;;;;;;32.70;7.10;;;10.20;46.50;;;;;;5014013;28;20577;-57
2022/04/25 03:37:58;;;;;;;32.57;6.63;;;10.20;46.30;;;;;;5007807;28;20488;-57
2022/04/25 03:40:26;;;;;;;34.47;7.83;;;10.30;46.30;;;;;;5004047;28;20464;-57
2022/04/25 03:42:55;;;;;;;33.87;7.33;;;10.30;45.90;;;;;;5008022;28;20468;-59
2022/04/25 03:45:22;;;;;;;33.87;8.07;;;10.30;45.80;;;;;;5009361;28;20456;-59
2022/04/25 03:47:49;;;;;;;33.60;7.07;;;10.40;45.60;;;;;;5007514;28;20482;-57
2022/04/25 03:50:16;;;;;;;33.83;7.90;;;10.40;45.30;;;;;;5006902;28;20464;-56
2022/04/25 03:52:45;;;;;;;34.13;7.77;;;10.50;45.30;;;;;;5009576;28;20460;-59
2022/04/25 03:58:01;;;;;;;33.43;7.50;;;10.50;45.80;;;;;;5014140;28;20473;-57
2022/04/25 04:00:28;;;;;;;35.50;8.50;;;10.40;45.00;;;;;;5008955;28;20475;-58
2022/04/25 04:02:56;;;;;;;34.80;8.03;;;10.40;45.20;;;;;;4998999;28;20463;-60
2022/04/25 04:05:23;;;;;;;33.33;8.27;;;10.40;45.10;;;;;;5006656;28;20459;-60
2022/04/25 04:07:50;;;;;;;35.57;8.90;;;10.30;45.10;;;;;;5005237;28;20519;-61
2022/04/25 04:10:18;;;;;;;36.20;9.80;;;10.30;45.00;;;;;;5003416;28;20550;-61
2022/04/25 04:12:46;;;;;;;44.90;11.70;;;10.20;45.10;;;;;;5008452;28;20463;-59
2022/04/25 04:15:15;;;;;;;35.90;10.10;;;10.20;44.90;;;;;;5006553;28;20490;-58
2022/04/25 04:17:42;;;;;;;37.90;11.00;;;10.20;44.70;;;;;;5011691;28;20478;-60
2022/04/25 04:20:11;;;;;;;38.40;11.57;;;10.10;44.50;;;;;;5010888;28;21004;-59
2022/04/25 04:22:38;;;;;;;36.40;9.90;;;10.00;44.20;;;;;;5009809;28;20474;-59
2022/04/25 04:25:08;;;;;;;41.00;12.37;;;10.00;44.80;;;;;;5006076;28;20463;-59
2022/04/25 04:27:34;;;;;;;38.97;10.57;;;10.00;44.10;;;;;;5006832;28;20472;-60
2022/04/25 04:30:05;;;;;;;39.20;12.13;;;9.90;44.00;;;;;;5001653;28;20470;-62
2022/04/25 04:32:34;;;;;;;41.17;13.13;;;9.90;43.80;;;;;;4999013;28;21104;-61
2022/04/25 04:35:02;;;;;;;40.07;12.90;;;9.90;43.90;;;;;;5005029;28;20487;-61
2022/04/25 04:37:29;;;;;;;40.50;13.47;;;9.90;44.00;;;;;;4998908;28;20483;-62
2022/04/25 04:40:28;;;;;;;37.87;10.67;;;9.90;44.10;;;;;;5009254;28;20487;-58
2022/04/25 04:42:44;;;;;;;38.70;11.43;;;9.90;44.00;;;;;;5008958;28;20472;-59
2022/04/25 04:45:12;;;;;;;39.10;11.57;;;9.90;44.00;;;;;;5010166;28;20491;-59
2022/04/25 04:47:41;;;;;;;37.60;11.07;;;10.00;44.30;;;;;;5011511;28;20541;-61
2022/04/25 04:50:14;;;;;;;37.93;11.10;;;10.00;44.20;;;;;;5003378;28;20984;-59
2022/04/25 04:52:42;;;;;;;40.83;11.03;;;10.00;44.30;;;;;;5006357;28;20469;-60
2022/04/25 04:55:10;;;;;;;38.93;12.37;;;10.00;44.40;;;;;;4998384;28;20511;-61
2022/04/25 04:57:37;;;;;;;38.83;11.50;;;10.00;44.50;;;;;;5010400;28;20494;-59
2022/04/25 05:00:06;;;;;;;37.97;11.97;;;10.10;44.70;;;;;;5003512;28;20490;-57
2022/04/25 05:02:33;;;;;;;36.77;11.07;;;10.10;44.70;;;;;;4997376;28;20476;-61
2022/04/25 05:05:01;;;;;;;39.57;12.03;;;10.20;44.90;;;;;;5001056;28;20464;-59
2022/04/25 05:07:28;;;;;;;40.00;10.33;;;10.40;45.10;;;;;;4997950;28;20460;-59
2022/04/25 05:09:55;;;;;;;37.60;10.17;;;10.50;45.00;;;;;;4999053;28;20973;-61
2022/04/25 05:12:21;;;;;;;38.17;11.30;;;10.80;45.00;;;;;;5001665;28;20469;-59
2022/04/25 05:14:48;;;;;;;37.80;10.53;;;11.30;45.00;;;;;;5009689;28;20482;-58
2022/04/25 05:17:15;;;;;;;37.50;10.90;;;11.80;43.90;;;;;;5000048;28;21135;-58
2022/04/25 05:19:42;;;;;;;37.70;10.93;;;12.30;42.40;;;;;;5004773;28;22843;-58
2022/04/25 05:22:10;;;;;;;37.50;11.73;;;12.70;40.60;;;;;;5005986;28;20462;-57
2022/04/25 05:24:36;;;;;;;37.83;10.40;;;13.20;39.10;;;;;;5015696;28;20467;-57
2022/04/25 05:27:04;;;;;;;37.60;12.63;;;13.80;37.10;;;;;;5000326;28;20460;-57
2022/04/25 05:29:32;;;;;;;37.63;12.00;;;14.60;34.80;;;;;;5001742;28;20497;-58
2022/04/25 05:31:59;;;;;;;36.17;11.43;;;14.90;33.10;;;;;;5004990;28;20475;-57
2022/04/25 05:34:25;;;;;;;37.03;13.30;;;14.90;32.10;;;;;;5004131;28;20539;-57
2022/04/25 05:36:52;;;;;;;37.80;14.97;;;14.70;31.40;;;;;;5005987;28;20467;-56
2022/04/25 05:39:20;;;;;;;38.73;13.90;;;14.40;31.10;;;;;;5000291;28;20494;-58
2022/04/25 05:41:47;;;;;;;49.83;12.40;;;14.10;31.40;;;;;;5001628;28;20467;-57
2022/04/25 05:44:14;;;;;;;38.40;13.87;;;13.80;31.90;;;;;;4999549;28;22338;-57
2022/04/25 05:46:41;;;;;;;38.90;14.20;;;13.70;32.30;;;;;;5006340;28;20459;-60
2022/04/25 05:52:02;;;;;;;39.90;15.60;;;13.50;32.60;;;;;;5000869;28;20450;-57
2022/04/25 05:54:30;;;;;;;40.33;15.30;;;13.40;32.50;;;;;;5007122;28;20466;-57
2022/04/25 05:56:57;;;;;;;40.17;15.60;;;13.50;32.40;;;;;;5001975;28;21184;-57
2022/04/25 05:59:24;;;;;;;40.00;15.70;;;13.50;32.10;;;;;;4998759;28;20511;-58
2022/04/25 06:01:53;;;;;;;40.57;15.90;;;13.50;32.00;;;;;;5000241;28;20483;-58
2022/04/25 06:04:21;;;;;;;41.30;15.20;;;13.60;31.90;;;;;;5000963;28;20466;-59
2022/04/25 06:06:47;;;;;;;43.13;17.17;;;13.70;31.60;;;;;;5009547;28;20487;-59
2022/04/25 06:09:15;;;;;;;41.43;16.27;;;13.90;30.70;;;;;;4996742;28;21644;-58
2022/04/25 06:11:44;;;;;;;39.57;16.53;;;14.80;32.50;;;;;;5002531;28;20541;-58
2022/04/25 06:14:11;;;;;;;42.60;18.30;;;16.70;27.40;;;;;;5000221;28;20460;-57
2022/04/25 06:16:37;;;;;;;38.23;15.47;;;17.60;23.50;;;;;;4992299;28;20566;-57
2022/04/25 06:19:04;;;;;;;38.13;14.77;;;19.90;18.80;;;;;;4993393;28;20483;-57
2022/04/25 06:21:31;;;;;;;35.27;13.50;;;22.40;15.20;;;;;;4997168;28;20471;-58
2022/04/25 06:24:00;;;;;;;35.73;14.50;;;24.60;10.70;;;;;;5000042;28;20471;-57
2022/04/25 06:26:27;;;;;;;35.37;14.03;;;26.50;7.50;;;;;;4997374;28;21141;-59
2022/04/25 06:28:55;;;;;;;34.70;13.77;;;28.20;4.10;;;;;;5001278;28;20575;-59
2022/04/25 06:31:23;;;;;;;31.40;12.13;;;29.40;2.00;;;;;;5005494;28;20479;-60
2022/04/25 06:33:49;;;;;;;31.43;12.53;;;30.30;1.00;;;;;;4998847;28;20993;-60
2022/04/25 06:36:16;;;;;;;31.50;13.00;;;31.10;1.00;;;;;;5008908;28;20491;-60
2022/04/25 06:38:43;;;;;;;30.13;12.70;;;31.80;1.00;;;;;;5003422;28;20479;-60
2022/04/25 06:41:10;;;;;;;30.83;12.53;;;32.60;1.00;;;;;;4999904;28;21129;-58
2022/04/25 06:43:36;;;;;;;30.33;12.10;;;33.20;1.00;;;;;;4999699;28;20462;-60
2022/04/25 06:46:05;;;;;;;31.03;11.87;;;33.80;1.00;;;;;;5002545;28;20542;-58
2022/04/25 06:48:31;;;;;;;29.50;12.47;;;34.40;1.00;;;;;;5005770;28;20571;-59
2022/04/25 06:50:58;;;;;;;27.90;10.90;;;34.90;1.00;;;;;;4999566;28;20463;-59
2022/04/25 06:53:25;;;;;;;29.50;12.00;;;35.40;1.00;;;;;;5001819;28;20594;-58
2022/04/25 06:55:52;;;;;;;28.60;11.20;;;35.20;1.00;;;;;;5000436;28;20565;-59
2022/04/25 06:58:19;;;;;;;28.17;11.33;;;34.50;1.00;;;;;;5006138;28;21028;-59
2022/04/25 07:00:47;;;;;;;29.47;13.10;;;35.10;1.00;;;;;;5014219;28;20483;-60
2022/04/25 07:03:15;;;;;;;27.70;11.30;;;35.80;1.00;;;;;;4999708;28;20476;-60
2022/04/25 07:05:42;;;;;;;27.50;10.93;;;35.80;1.00;;;;;;5005975;28;20463;-59
2022/04/25 07:08:09;;;;;;;29.13;11.00;;;34.60;1.00;;;;;;4996897;28;22316;-59
2022/04/25 07:10:36;;;;;;;29.27;12.10;;;32.80;1.00;;;;;;4999034;28;20460;-60
2022/04/25 07:13:02;;;;;;;29.30;10.60;;;31.10;1.00;;;;;;5008674;28;20452;-59
2022/04/25 07:15:29;;;;;;;30.27;11.37;;;29.60;1.00;;;;;;5008286;28;20483;-58
2022/04/25 07:17:56;;;;;;;31.23;12.10;;;28.20;1.00;;;;;;5005716;28;20499;-59
2022/04/25 07:20:24;;;;;;;31.87;12.03;;;27.00;1.00;;;;;;5010449;28;20469;-60
2022/04/25 07:31:03;;;;;;;31.70;11.80;;;27.20;2.10;;;;;;5001460;28;20505;-59
2022/04/25 07:33:30;;;;;;;33.37;11.63;;;29.70;1.00;;;;;;5007064;28;20463;-59
2022/04/25 07:35:59;;;;;;;30.50;11.40;;;31.50;1.00;;;;;;5006302;28;20567;-58
2022/04/25 07:38:27;;;;;;;31.67;12.27;;;31.40;1.00;;;;;;5007169;28;20483;-59
2022/04/25 07:40:53;;;;;;;30.17;11.27;;;30.20;1.00;;;;;;5003661;28;21012;-60
2022/04/25 07:43:20;;;;;;;31.03;11.93;;;28.70;1.00;;;;;;5003363;28;20476;-60
2022/04/25 07:45:47;;;;;;;32.57;12.10;;;27.20;1.00;;;;;;5004935;28;20466;-59
2022/04/25 07:48:14;;;;;;;35.53;14.60;;;25.70;1.00;;;;;;5001308;28;20842;-60
2022/04/25 07:50:41;;;;;;;32.70;12.73;;;24.50;3.30;;;;;;5001083;28;20472;-59
2022/04/25 07:53:09;;;;;;;35.73;14.10;;;23.60;4.40;;;;;;5002254;28;20973;-59
2022/04/25 07:55:35;;;;;;;34.20;13.80;;;22.80;5.70;;;;;;5002015;28;21024;-59
2022/04/25 07:58:02;;;;;;;35.27;14.70;;;22.50;6.40;;;;;;5000697;28;20495;-58
2022/04/25 08:00:29;;;;;;;35.10;13.93;;;22.50;6.60;;;;;;5003312;28;21137;-58
2022/04/25 08:02:56;;;;;;;35.70;14.30;;;23.30;6.40;;;;;;5003010;28;20467;-62
2022/04/25 08:05:23;;;;;;;34.90;13.07;;;23.40;6.20;;;;;;5010975;28;20456;-58
2022/04/25 08:07:49;;;;;;;34.17;12.97;;;23.50;6.00;;;;;;5008068;28;21060;-58
2022/04/25 08:10:18;;;;;;;34.37;12.97;;;23.00;5.70;;;;;;5006398;28;20484;-59
2022/04/25 08:18:13;;;;;;;34.70;13.73;;;23.00;6.50;;;;;;5001376;28;20595;-60
2022/04/25 08:20:42;;;;;;;36.20;14.43;;;22.70;7.00;;;;;;5002289;28;20478;-61
2022/04/25 08:23:11;;;;;;;35.00;13.30;;;22.20;7.10;;;;;;5000931;28;20475;-61
2022/04/25 08:25:40;;;;;;;36.10;13.90;;;21.50;7.40;;;;;;5005584;28;21059;-60
2022/04/25 08:28:08;;;;;;;39.50;15.67;;;20.80;8.40;;;;;;5003713;28;20483;-59
2022/04/25 08:30:35;;;;;;;36.67;15.10;;;20.20;9.10;;;;;;5005126;28;20486;-58
2022/04/25 08:33:02;;;;;;;35.27;13.93;;;19.70;10.40;;;;;;5005380;28;20466;-59
2022/04/25 08:35:30;;;;;;;39.87;15.90;;;19.20;11.50;;;;;;5004058;28;20491;-61
2022/04/25 08:37:56;;;;;;;37.00;14.60;;;18.80;12.50;;;;;;5008719;28;20488;-58
2022/04/25 08:40:24;;;;;;;38.33;15.90;;;18.40;12.70;;;;;;5005592;28;20472;-61
2022/04/25 08:42:53;;;;;;;38.33;16.27;;;18.10;13.10;;;;;;5004800;28;20852;-58
2022/04/25 08:45:21;;;;;;;38.50;14.70;;;17.80;13.90;;;;;;5006253;28;20464;-58
2022/04/25 08:47:53;;;;;;;37.73;14.87;;;17.60;14.10;;;;;;5008239;28;20491;-59
2022/04/25 08:50:20;;;;;;;37.93;15.53;;;17.50;14.40;;;;;;5001449;28;20468;-59
2022/04/25 08:52:47;;;;;;;37.33;14.80;;;17.30;14.80;;;;;;5003697;28;20459;-62
2022/04/25 08:55:16;;;;;;;37.33;15.73;;;17.10;15.80;;;;;;5001973;28;20471;-63
2022/04/25 08:57:43;;;;;;;38.53;14.77;;;17.00;16.00;;;;;;5007677;28;20921;-60
2022/04/25 09:00:13;;;;;;;38.27;15.87;;;17.00;16.20;;;;;;5005049;28;20471;-59
2022/04/25 09:02:40;;;;;;;39.30;16.07;;;16.90;16.50;;;;;;5008801;28;20459;-59
2022/04/25 09:05:07;;;;;;;38.33;15.63;;;16.80;16.60;;;;;;5005152;28;20472;-61
2022/04/25 09:07:37;;;;;;;37.93;14.80;;;16.80;16.50;;;;;;5006411;28;20476;-62
2022/04/25 09:10:04;;;;;;;37.60;14.87;;;16.80;16.70;;;;;;5003697;28;20465;-59
2022/04/25 09:12:31;;;;;;;37.60;14.83;;;16.90;16.60;;;;;;5008695;28;20460;-59
2022/04/25 09:14:59;;;;;;;37.80;13.97;;;17.20;15.90;;;;;;5008451;28;20455;-59
2022/04/25 09:17:27;;;;;;;38.23;14.70;;;17.60;15.50;;;;;;5007333;28;20484;-62
2022/04/25 09:19:54;;;;;;;38.73;15.30;;;18.10;15.50;;;;;;5006052;28;20463;-62
2022/04/25 09:22:32;;;;;;;38.40;14.50;;;18.50;15.00;;;;;;5003348;28;20470;-63
2022/04/25 09:25:05;;;;;;;39.30;14.60;;;18.70;14.50;;;;;;5004539;28;20874;-62
2022/04/25 09:27:33;;;;;;;36.47;13.60;;;18.80;13.80;;;;;;5007818;28;20484;-61
2022/04/25 09:30:18;;;;;;;37.40;14.93;;;19.00;13.20;;;;;;5004815;28;20468;-59
2022/04/25 09:32:46;;;;;;;35.97;13.63;;;19.10;12.80;;;;;;5008098;28;20474;-61
2022/04/25 09:35:32;;;;;;;37.20;13.93;;;19.20;12.80;;;;;;5005632;28;20468;-57
2022/04/25 09:38:00;;;;;;;36.83;13.23;;;19.30;12.50;;;;;;4996983;28;20552;-60
2022/04/25 09:40:29;;;;;;;34.87;13.00;;;19.20;12.30;;;;;;5008454;28;20906;-57
2022/04/25 09:43:07;;;;;;;35.80;12.70;;;19.10;12.20;;;;;;5007311;28;20471;-61
2022/04/25 09:45:35;;;;;;;34.57;12.83;;;19.20;12.60;;;;;;5006697;28;20474;-60
2022/04/25 09:48:08;;;;;;;36.13;12.97;;;19.30;12.40;;;;;;5007697;28;21085;-57
2022/04/25 09:50:37;;;;;;;33.33;11.00;;;19.50;12.40;;;;;;5004266;28;20475;-60
2022/04/25 09:53:05;;;;;;;35.03;12.13;;;19.70;12.00;;;;;;5008191;28;20463;-57
2022/04/25 09:55:34;;;;;;;35.27;12.97;;;19.80;11.30;;;;;;5008152;28;20471;-62
2022/04/25 09:58:16;;;;;;;37.70;13.73;;;20.10;11.00;;;;;;5006571;28;20521;-63
2022/04/25 10:00:43;;;;;;;36.27;13.10;;;20.70;10.70;;;;;;5004599;28;20491;-62
2022/04/25 10:03:12;;;;;;;36.00;13.00;;;21.70;9.90;;;;;;5005912;28;20468;-61
2022/04/25 10:05:41;;;;;;;35.83;13.40;;;22.50;8.40;;;;;;5009604;28;20474;-57
2022/04/25 10:08:10;;;;;;;34.27;12.63;;;22.80;6.10;;;;;;5011590;28;21019;-60
2022/04/25 10:10:41;;;;;;;34.10;13.27;;;22.80;6.20;;;;;;5004276;28;20470;-58
2022/04/25 10:13:10;;;;;;;34.07;12.83;;;23.00;6.10;;;;;;5005200;28;20476;-60
2022/04/25 10:15:38;;;;;;;33.97;12.17;;;24.30;5.40;;;;;;5005459;28;20479;-59
2022/04/25 10:18:06;;;;;;;32.70;11.27;;;25.10;4.80;;;;;;5006042;28;20491;-57
2022/04/25 10:20:36;;;;;;;33.70;12.37;;;27.00;2.80;;;;;;5006362;28;20461;-60
2022/04/25 10:23:04;;;;;;;31.90;12.43;;;29.00;1.10;;;;;;5005942;28;20460;-57
2022/04/25 10:25:31;;;;;;;30.50;10.50;;;30.40;1.00;;;;;;5005513;28;20461;-61
2022/04/25 10:28:00;;;;;;;30.50;10.80;;;32.90;1.00;;;;;;5006711;28;20479;-62
2022/04/25 10:30:32;;;;;;;30.27;10.90;;;34.10;1.00;;;;;;5004001;28;20601;-64
2022/04/25 10:33:13;;;;;;;29.50;10.20;;;34.10;1.00;;;;;;5006997;28;20491;-63
2022/04/25 10:35:42;;;;;;;30.00;10.20;;;33.30;1.00;;;;;;5008177;28;20498;-67
2022/04/25 10:38:51;;;;;;;29.83;11.17;;;32.60;1.00;;;;;;5005201;28;20495;-61
2022/04/25 10:44:30;;;;;;;30.07;10.40;;;30.10;1.00;;;;;;5005515;28;20928;-61
2022/04/25 10:47:16;;;;;;;31.20;10.73;;;29.00;1.00;;;;;;5003351;28;20554;-58
2022/04/25 10:49:45;;;;;;;30.50;10.67;;;28.20;1.00;;;;;;5007540;28;20491;-59
2022/04/25 10:53:01;;;;;;;32.70;11.83;;;27.70;1.00;;;;;;5011972;28;20851;-60
2022/04/25 10:55:38;;;;;;;32.70;12.50;;;27.20;1.00;;;;;;5006887;28;20503;-59
2022/04/25 10:58:16;;;;;;;31.50;11.37;;;26.50;1.00;;;;;;5005977;28;20578;-60
2022/04/25 11:00:56;;;;;;;33.33;13.90;;;25.80;1.00;;;;;;5008448;28;21020;-59
2022/04/25 11:03:28;;;;;;;33.77;13.80;;;25.40;1.30;;;;;;5003646;28;20545;-59
2022/04/25 11:05:57;;;;;;;34.43;13.87;;;25.10;1.90;;;;;;5006181;28;20504;-59
2022/04/25 11:08:53;;;;;;;35.67;14.97;;;24.70;1.10;;;;;;5008163;28;20487;-58
2022/04/25 11:11:24;;;;;;;35.33;12.63;;;24.20;2.40;;;;;;5009065;28;21188;-60
2022/04/25 11:14:17;;;;;;;33.23;12.50;;;23.80;3.40;;;;;;5009820;28;20510;-60
2022/04/25 11:16:59;;;;;;;35.20;13.63;;;23.40;4.10;;;;;;5006922;28;20513;-61
2022/04/25 11:19:43;;;;;;;34.43;12.33;;;23.20;5.00;;;;;;5005504;28;20498;-60
2022/04/25 11:22:47;;;;;;;34.67;12.93;;;23.00;5.30;;;;;;5004820;28;20464;-61
2022/04/25 11:25:41;;;;;;;34.47;12.50;;;22.80;4.00;;;;;;5008099;28;20474;-60
2022/04/25 11:28:13;;;;;;;34.77;11.97;;;22.70;5.00;;;;;;5004303;28;20484;-60
2022/04/25 11:30:41;;;;;;;33.80;11.73;;;22.70;5.90;;;;;;5004389;28;20856;-60
2022/04/25 11:33:09;;;;;;;36.40;13.53;;;22.90;5.50;;;;;;5004895;28;20462;-61
2022/04/25 11:35:37;;;;;;;34.87;13.70;;;23.10;5.60;;;;;;5006912;28;20491;-60
2022/04/25 11:38:04;;;;;;;34.43;12.30;;;23.20;4.60;;;;;;5009410;28;20487;-61
2022/04/25 11:40:31;;;;;;;34.63;13.33;;;22.90;4.00;;;;;;5007359;28;20589;-61
2022/04/25 11:43:03;;;;;;;33.43;12.03;;;22.60;4.30;;;;;;5014276;28;20478;-61
2022/04/25 11:45:30;;;;;;;34.43;13.20;;;22.30;4.70;;;;;;5008651;28;20486;-61
2022/04/25 11:48:00;;;;;;;35.17;12.97;;;22.30;5.60;;;;;;5007993;28;20484;-61
2022/04/25 11:50:27;;;;;;;34.70;12.90;;;22.20;5.40;;;;;;5011987;28;21024;-61
2022/04/25 11:52:55;;;;;;;34.73;13.03;;;22.30;5.10;;;;;;5011080;28;20858;-60
2022/04/25 11:55:33;;;;;;;33.90;12.07;;;22.10;5.40;;;;;;5009366;28;20514;-61
2022/04/25 11:58:01;;;;;;;33.70;12.60;;;21.80;5.20;;;;;;5006027;28;20497;-61
2022/04/25 12:00:28;;;;;;;35.53;13.30;;;21.50;5.40;;;;;;5008218;28;20485;-61
2022/04/25 12:02:55;;;;;;;37.07;13.47;;;21.30;5.50;;;;;;5003672;28;20847;-60
2022/04/25 12:05:29;;;;;;;34.90;12.60;;;21.00;5.90;;;;;;5029608;28;20455;-60
2022/04/25 12:16:10;;;;;;;34.30;11.40;;;20.30;8.20;;;;;;5003240;28;20506;-60
2022/04/25 12:18:49;;;;;;;37.03;13.60;;;19.90;11.20;;;;;;5008191;28;20510;-61
2022/04/25 12:21:17;;;;;;;36.00;12.80;;;19.30;12.60;;;;;;5009200;28;20467;-61
2022/04/25 12:23:47;;;;;;;36.00;12.57;;;18.90;13.60;;;;;;5007874;28;20859;-61
2022/04/25 12:26:17;;;;;;;34.53;10.80;;;18.50;13.40;;;;;;5008989;28;20467;-61
2022/04/25 12:28:52;;;;;;;35.63;11.10;;;18.10;13.10;;;;;;5009252;28;20480;-62
2022/04/25 12:31:19;;;;;;;34.70;11.33;;;17.80;14.70;;;;;;5005560;28;20490;-60
2022/04/25 12:33:47;;;;;;;36.60;12.77;;;17.60;15.30;;;;;;5007392;28;20518;-60
2022/04/25 12:36:18;;;;;;;36.47;11.83;;;17.20;16.00;;;;;;5007773;28;20463;-60
2022/04/25 12:38:46;;;;;;;34.20;10.47;;;16.90;16.60;;;;;;5007795;28;20605;-61
2022/04/25 12:41:21;;;;;;;34.20;11.07;;;16.60;17.30;;;;;;5007753;28;20464;-60
2022/04/25 12:43:50;;;;;;;36.07;13.43;;;16.40;17.80;;;;;;5009967;28;20512;-61
2022/04/25 12:46:33;;;;;;;34.90;13.47;;;16.20;19.20;;;;;;5004770;28;20460;-59
2022/04/25 12:49:03;;;;;;;34.97;13.10;;;16.00;21.10;;;;;;5006772;28;20541;-61
2022/04/25 12:51:47;;;;;;;36.37;13.83;;;15.90;22.40;;;;;;5007167;28;20463;-61
2022/04/25 12:54:24;;;;;;;35.20;14.40;;;15.70;23.10;;;;;;5005103;28;20546;-61
2022/04/25 12:56:55;;;;;;;35.63;10.23;;;15.50;23.20;;;;;;5006501;28;20491;-62
2022/04/25 12:59:28;;;;;;;31.80;7.80;;;15.40;24.20;;;;;;5008365;28;20482;-57
2022/04/25 13:02:01;;;;;;;29.73;7.40;;;15.10;24.80;;;;;;5007201;28;20480;-57
2022/04/25 13:04:29;;;;;;;32.73;7.70;;;15.00;25.30;;;;;;5006697;28;20464;-57
2022/04/25 13:06:55;;;;;;;28.83;6.77;;;14.80;26.50;;;;;;5006406;28;20475;-56
2022/04/25 13:09:22;;;;;;;31.67;7.47;;;14.60;27.30;;;;;;5009745;28;20495;-57
2022/04/25 13:11:49;;;;;;;28.67;6.33;;;14.50;28.00;;;;;;5008558;28;20467;-58
2022/04/25 13:14:16;;;;;;;30.30;7.47;;;14.40;28.40;;;;;;5009113;28;20492;-57
2022/04/25 13:16:44;;;;;;;31.23;7.33;;;14.30;28.90;;;;;;5006153;28;20468;-56
2022/04/25 13:19:11;;;;;;;30.40;6.60;;;14.20;29.60;;;;;;5006447;28;20491;-57